CEI weather

Chiang Rai International Airport
Chiang Rai, Chiang Rai Province, Thailand

Public forecast

Using degrees Celsius for public forecast. Weather courtesy of forecast.io.

Current aviation weather report (METAR) for Chiang Rai International Airport

Retrieved 2019/12/13 07:00 UTC (32 minutes ago):

VTCT 130700Z VRB02KT CAVOK 26/12 Q1018 NOSIG

Aviation forecast (TAF) for Chiang Rai International Airport

Retrieved 2019/12/13 06:00 UTC (2 hours ago):

TAF VTCT 130500Z 1306/1412 04005KT CAVOK BECMG 1321/1323 2000 BR BECMG 1401/1403 CAVOK